sensor_id;sensor_type;location;lat;lon;timestamp;temperature;humidity
16958;DHT22;8595;52.542;11.974;2023-07-31T00:01:23;16.10;99.90
16958;DHT22;8595;52.542;11.974;2023-07-31T00:03:50;16.10;99.90
16958;DHT22;8595;52.542;11.974;2023-07-31T00:06:17;16.10;99.90
16958;DHT22;8595;52.542;11.974;2023-07-31T00:08:44;16.10;99.90
16958;DHT22;8595;52.542;11.974;2023-07-31T00:11:10;16.10;99.90
16958;DHT22;8595;52.542;11.974;2023-07-31T00:13:39;16.10;99.90
16958;DHT22;8595;52.542;11.974;2023-07-31T00:16:06;16.00;99.90
16958;DHT22;8595;52.542;11.974;2023-07-31T00:18:32;16.10;99.90
16958;DHT22;8595;52.542;11.974;2023-07-31T00:20:59;16.10;99.90
16958;DHT22;8595;52.542;11.974;2023-07-31T00:23:26;16.10;99.90
16958;DHT22;8595;52.542;11.974;2023-07-31T00:25:53;16.10;99.90
16958;DHT22;8595;52.542;11.974;2023-07-31T00:28:20;16.20;99.90
16958;DHT22;8595;52.542;11.974;2023-07-31T00:30:48;16.20;99.90
16958;DHT22;8595;52.542;11.974;2023-07-31T00:33:15;16.10;99.90
16958;DHT22;8595;52.542;11.974;2023-07-31T00:35:42;16.30;99.90
16958;DHT22;8595;52.542;11.974;2023-07-31T00:38:09;16.30;99.90
16958;DHT22;8595;52.542;11.974;2023-07-31T00:40:36;16.30;99.90
16958;DHT22;8595;52.542;11.974;2023-07-31T00:43:03;16.30;99.90
16958;DHT22;8595;52.542;11.974;2023-07-31T00:45:30;16.30;99.90
16958;DHT22;8595;52.542;11.974;2023-07-31T00:47:59;16.20;99.90
16958;DHT22;8595;52.542;11.974;2023-07-31T00:50:27;16.10;99.90
16958;DHT22;8595;52.542;11.974;2023-07-31T00:52:54;16.00;99.90
16958;DHT22;8595;52.542;11.974;2023-07-31T00:55:21;16.00;99.90
16958;DHT22;8595;52.542;11.974;2023-07-31T00:57:48;16.00;99.90
16958;DHT22;8595;52.542;11.974;2023-07-31T01:00:15;16.00;99.90
16958;DHT22;8595;52.542;11.974;2023-07-31T01:02:42;16.00;99.90
16958;DHT22;8595;52.542;11.974;2023-07-31T01:05:10;16.10;99.90
16958;DHT22;8595;52.542;11.974;2023-07-31T01:07:42;16.10;99.90
16958;DHT22;8595;52.542;11.974;2023-07-31T01:10:15;16.10;99.90
16958;DHT22;8595;52.542;11.974;2023-07-31T01:12:45;16.10;99.90
16958;DHT22;8595;52.542;11.974;2023-07-31T01:15:12;16.10;99.90
16958;DHT22;8595;52.542;11.974;2023-07-31T01:17:41;16.20;99.90
16958;DHT22;8595;52.542;11.974;2023-07-31T01:20:12;16.20;99.90
16958;DHT22;8595;52.542;11.974;2023-07-31T01:22:54;16.20;99.90
16958;DHT22;8595;52.542;11.974;2023-07-31T01:25:45;16.20;99.90
16958;DHT22;8595;52.542;11.974;2023-07-31T01:28:14;16.30;99.90
16958;DHT22;8595;52.542;11.974;2023-07-31T01:30:45;16.20;99.90
16958;DHT22;8595;52.542;11.974;2023-07-31T01:33:14;16.10;99.90
16958;DHT22;8595;52.542;11.974;2023-07-31T01:35:44;16.20;99.90
16958;DHT22;8595;52.542;11.974;2023-07-31T01:38:11;16.30;99.90
16958;DHT22;8595;52.542;11.974;2023-07-31T01:40:41;16.20;99.90
16958;DHT22;8595;52.542;11.974;2023-07-31T01:43:10;16.30;99.90
16958;DHT22;8595;52.542;11.974;2023-07-31T01:45:37;16.30;99.90
16958;DHT22;8595;52.542;11.974;2023-07-31T01:48:04;16.40;99.90
16958;DHT22;8595;52.542;11.974;2023-07-31T01:50:31;16.40;99.90
16958;DHT22;8595;52.542;11.974;2023-07-31T01:52:57;16.50;99.90
16958;DHT22;8595;52.542;11.974;2023-07-31T01:55:24;16.50;99.90
16958;DHT22;8595;52.542;11.974;2023-07-31T01:57:53;16.60;99.90
16958;DHT22;8595;52.542;11.974;2023-07-31T02:00:21;16.60;99.90
16958;DHT22;8595;52.542;11.974;2023-07-31T02:02:48;16.60;99.90
16958;DHT22;8595;52.542;11.974;2023-07-31T02:05:15;16.70;99.90
16958;DHT22;8595;52.542;11.974;2023-07-31T02:07:42;16.70;99.90
16958;DHT22;8595;52.542;11.974;2023-07-31T02:10:09;16.60;99.90
16958;DHT22;8595;52.542;11.974;2023-07-31T02:12:35;16.60;99.90
16958;DHT22;8595;52.542;11.974;2023-07-31T02:15:02;16.60;99.90
16958;DHT22;8595;52.542;11.974;2023-07-31T02:17:31;16.60;99.90
16958;DHT22;8595;52.542;11.974;2023-07-31T02:19:57;16.60;99.90
16958;DHT22;8595;52.542;11.974;2023-07-31T02:22:24;16.60;99.90
16958;DHT22;8595;52.542;11.974;2023-07-31T02:24:51;16.60;99.90
16958;DHT22;8595;52.542;11.974;2023-07-31T02:27:18;16.60;99.90
16958;DHT22;8595;52.542;11.974;2023-07-31T02:29:45;16.50;99.90
16958;DHT22;8595;52.542;11.974;2023-07-31T02:32:11;16.60;99.90
16958;DHT22;8595;52.542;11.974;2023-07-31T02:34:39;16.60;99.90
16958;DHT22;8595;52.542;11.974;2023-07-31T02:37:06;16.60;99.90
16958;DHT22;8595;52.542;11.974;2023-07-31T02:39:33;16.70;99.90
16958;DHT22;8595;52.542;11.974;2023-07-31T02:42:00;16.70;99.90
16958;DHT22;8595;52.542;11.974;2023-07-31T02:44:27;16.80;99.90
16958;DHT22;8595;52.542;11.974;2023-07-31T02:46:54;16.70;99.90
16958;DHT22;8595;52.542;11.974;2023-07-31T02:49:20;16.60;99.90
16958;DHT22;8595;52.542;11.974;2023-07-31T02:51:48;16.50;99.90
16958;DHT22;8595;52.542;11.974;2023-07-31T02:54:15;16.40;99.90
16958;DHT22;8595;52.542;11.974;2023-07-31T02:56:42;16.40;99.90
16958;DHT22;8595;52.542;11.974;2023-07-31T02:59:09;16.30;99.90
16958;DHT22;8595;52.542;11.974;2023-07-31T03:01:36;16.30;99.90
16958;DHT22;8595;52.542;11.974;2023-07-31T03:04:02;16.30;99.90
16958;DHT22;8595;52.542;11.974;2023-07-31T03:06:29;16.20;99.90
16958;DHT22;8595;52.542;11.974;2023-07-31T03:08:58;16.20;99.90
16958;DHT22;8595;52.542;11.974;2023-07-31T03:11:24;16.20;99.90
16958;DHT22;8595;52.542;11.974;2023-07-31T03:13:51;16.20;99.90
16958;DHT22;8595;52.542;11.974;2023-07-31T03:16:19;16.20;99.90
16958;DHT22;8595;52.542;11.974;2023-07-31T03:18:46;16.10;99.90
16958;DHT22;8595;52.542;11.974;2023-07-31T03:21:13;16.10;99.90
16958;DHT22;8595;52.542;11.974;2023-07-31T03:23:40;16.10;99.90
16958;DHT22;8595;52.542;11.974;2023-07-31T03:26:10;16.00;99.90
16958;DHT22;8595;52.542;11.974;2023-07-31T03:28:37;15.90;99.90
16958;DHT22;8595;52.542;11.974;2023-07-31T03:31:04;15.90;99.90
16958;DHT22;8595;52.542;11.974;2023-07-31T03:33:30;15.80;99.90
16958;DHT22;8595;52.542;11.974;2023-07-31T03:35:57;15.80;99.90
16958;DHT22;8595;52.542;11.974;2023-07-31T03:38:24;15.80;99.90
16958;DHT22;8595;52.542;11.974;2023-07-31T03:40:51;15.80;99.90
16958;DHT22;8595;52.542;11.974;2023-07-31T03:43:19;15.70;99.90
16958;DHT22;8595;52.542;11.974;2023-07-31T03:45:46;15.80;99.90
16958;DHT22;8595;52.542;11.974;2023-07-31T03:48:15;15.90;99.90
16958;DHT22;8595;52.542;11.974;2023-07-31T03:50:42;16.00;99.90
16958;DHT22;8595;52.542;11.974;2023-07-31T03:53:08;16.00;99.90
16958;DHT22;8595;52.542;11.974;2023-07-31T03:55:35;16.10;99.90
16958;DHT22;8595;52.542;11.974;2023-07-31T03:58:02;16.20;99.90
16958;DHT22;8595;52.542;11.974;2023-07-31T04:00:30;16.30;99.90
16958;DHT22;8595;52.542;11.974;2023-07-31T04:02:57;16.30;99.90
16958;DHT22;8595;52.542;11.974;2023-07-31T04:05:24;16.40;99.90
16958;DHT22;8595;52.542;11.974;2023-07-31T04:07:51;16.40;99.90
16958;DHT22;8595;52.542;11.974;2023-07-31T04:10:18;16.30;99.90
16958;DHT22;8595;52.542;11.974;2023-07-31T04:12:44;16.20;99.90
16958;DHT22;8595;52.542;11.974;2023-07-31T04:15:11;16.20;99.90
16958;DHT22;8595;52.542;11.974;2023-07-31T04:17:39;16.10;99.90
16958;DHT22;8595;52.542;11.974;2023-07-31T04:20:07;16.20;99.90
16958;DHT22;8595;52.542;11.974;2023-07-31T04:22:34;16.20;99.90
16958;DHT22;8595;52.542;11.974;2023-07-31T04:25:00;16.30;99.90
16958;DHT22;8595;52.542;11.974;2023-07-31T04:27:27;16.40;99.90
16958;DHT22;8595;52.542;11.974;2023-07-31T04:29:54;16.50;99.90
16958;DHT22;8595;52.542;11.974;2023-07-31T04:32:21;16.60;99.90
16958;DHT22;8595;52.542;11.974;2023-07-31T04:34:49;16.60;99.90
16958;DHT22;8595;52.542;11.974;2023-07-31T04:37:16;16.60;99.90
16958;DHT22;8595;52.542;11.974;2023-07-31T04:39:43;16.60;99.90
16958;DHT22;8595;52.542;11.974;2023-07-31T04:42:10;16.60;99.90
16958;DHT22;8595;52.542;11.974;2023-07-31T04:44:36;16.70;99.90
16958;DHT22;8595;52.542;11.974;2023-07-31T04:47:03;16.70;99.90
16958;DHT22;8595;52.542;11.974;2023-07-31T04:49:31;16.60;99.90
16958;DHT22;8595;52.542;11.974;2023-07-31T04:51:59;16.70;99.90
16958;DHT22;8595;52.542;11.974;2023-07-31T04:54:26;16.70;99.90
16958;DHT22;8595;52.542;11.974;2023-07-31T04:56:52;16.60;99.90
16958;DHT22;8595;52.542;11.974;2023-07-31T04:59:19;16.50;99.90
16958;DHT22;8595;52.542;11.974;2023-07-31T05:01:46;16.50;99.90
16958;DHT22;8595;52.542;11.974;2023-07-31T05:04:13;16.50;99.90
16958;DHT22;8595;52.542;11.974;2023-07-31T05:06:41;16.50;99.90
16958;DHT22;8595;52.542;11.974;2023-07-31T05:09:09;16.50;99.90
16958;DHT22;8595;52.542;11.974;2023-07-31T05:11:36;16.40;99.90
16958;DHT22;8595;52.542;11.974;2023-07-31T05:14:02;16.40;99.90
16958;DHT22;8595;52.542;11.974;2023-07-31T05:16:29;16.40;99.90
16958;DHT22;8595;52.542;11.974;2023-07-31T05:18:56;16.50;99.90
16958;DHT22;8595;52.542;11.974;2023-07-31T05:21:23;16.50;99.90
16958;DHT22;8595;52.542;11.974;2023-07-31T05:23:50;16.50;99.90
16958;DHT22;8595;52.542;11.974;2023-07-31T05:26:18;16.40;99.90
16958;DHT22;8595;52.542;11.974;2023-07-31T05:28:45;16.40;99.90
16958;DHT22;8595;52.542;11.974;2023-07-31T05:31:12;16.40;99.90
16958;DHT22;8595;52.542;11.974;2023-07-31T05:33:39;16.40;99.90
16958;DHT22;8595;52.542;11.974;2023-07-31T05:36:06;16.40;99.90
16958;DHT22;8595;52.542;11.974;2023-07-31T05:38:32;16.40;99.90
16958;DHT22;8595;52.542;11.974;2023-07-31T05:40:59;16.50;99.90
16958;DHT22;8595;52.542;11.974;2023-07-31T05:43:28;16.50;99.90
16958;DHT22;8595;52.542;11.974;2023-07-31T05:45:54;16.50;99.90
16958;DHT22;8595;52.542;11.974;2023-07-31T05:48:21;16.50;99.90
16958;DHT22;8595;52.542;11.974;2023-07-31T05:50:48;16.50;99.90
16958;DHT22;8595;52.542;11.974;2023-07-31T05:53:15;16.50;99.90
16958;DHT22;8595;52.542;11.974;2023-07-31T05:55:42;16.60;99.90
16958;DHT22;8595;52.542;11.974;2023-07-31T05:58:08;16.50;99.90
16958;DHT22;8595;52.542;11.974;2023-07-31T06:00:37;16.60;99.90
16958;DHT22;8595;52.542;11.974;2023-07-31T06:03:03;16.70;99.90
16958;DHT22;8595;52.542;11.974;2023-07-31T06:05:30;16.70;99.90
16958;DHT22;8595;52.542;11.974;2023-07-31T06:07:57;16.70;99.90
16958;DHT22;8595;52.542;11.974;2023-07-31T06:10:24;16.80;99.90
16958;DHT22;8595;52.542;11.974;2023-07-31T06:12:51;16.80;99.90
16958;DHT22;8595;52.542;11.974;2023-07-31T06:15:18;16.90;99.90
16958;DHT22;8595;52.542;11.974;2023-07-31T06:17:47;17.00;99.90
16958;DHT22;8595;52.542;11.974;2023-07-31T06:20:13;17.10;99.90
16958;DHT22;8595;52.542;11.974;2023-07-31T06:22:40;17.20;99.90
16958;DHT22;8595;52.542;11.974;2023-07-31T06:25:07;17.30;99.90
16958;DHT22;8595;52.542;11.974;2023-07-31T06:27:34;17.40;99.90
16958;DHT22;8595;52.542;11.974;2023-07-31T06:30:01;17.20;99.90
16958;DHT22;8595;52.542;11.974;2023-07-31T06:32:28;17.30;99.90
16958;DHT22;8595;52.542;11.974;2023-07-31T06:34:56;17.30;99.90
16958;DHT22;8595;52.542;11.974;2023-07-31T06:37:23;17.30;99.90
16958;DHT22;8595;52.542;11.974;2023-07-31T06:39:50;17.30;99.90
16958;DHT22;8595;52.542;11.974;2023-07-31T06:42:17;17.30;99.90
16958;DHT22;8595;52.542;11.974;2023-07-31T06:44:44;17.40;99.90
16958;DHT22;8595;52.542;11.974;2023-07-31T06:47:10;17.40;99.90
16958;DHT22;8595;52.542;11.974;2023-07-31T06:49:37;17.40;99.90
16958;DHT22;8595;52.542;11.974;2023-07-31T06:52:06;17.40;99.90
16958;DHT22;8595;52.542;11.974;2023-07-31T06:54:33;17.50;99.90
16958;DHT22;8595;52.542;11.974;2023-07-31T06:56:59;17.50;99.90
16958;DHT22;8595;52.542;11.974;2023-07-31T06:59:26;17.60;99.90
16958;DHT22;8595;52.542;11.974;2023-07-31T07:01:53;17.80;99.90
16958;DHT22;8595;52.542;11.974;2023-07-31T07:04:20;18.00;99.90
16958;DHT22;8595;52.542;11.974;2023-07-31T07:06:47;17.80;99.90
16958;DHT22;8595;52.542;11.974;2023-07-31T07:09:15;17.80;99.90
16958;DHT22;8595;52.542;11.974;2023-07-31T07:11:42;17.80;99.90
16958;DHT22;8595;52.542;11.974;2023-07-31T07:14:09;17.90;99.90
16958;DHT22;8595;52.542;11.974;2023-07-31T07:16:36;18.00;99.90
16958;DHT22;8595;52.542;11.974;2023-07-31T07:19:03;17.90;99.90
16958;DHT22;8595;52.542;11.974;2023-07-31T07:21:30;17.90;99.90
16958;DHT22;8595;52.542;11.974;2023-07-31T07:23:56;17.90;99.90
16958;DHT22;8595;52.542;11.974;2023-07-31T07:26:24;17.60;99.90
16958;DHT22;8595;52.542;11.974;2023-07-31T07:28:51;17.60;99.90
16958;DHT22;8595;52.542;11.974;2023-07-31T07:31:18;17.70;99.90
16958;DHT22;8595;52.542;11.974;2023-07-31T07:33:45;17.70;99.90
16958;DHT22;8595;52.542;11.974;2023-07-31T07:36:11;17.50;99.90
16958;DHT22;8595;52.542;11.974;2023-07-31T07:38:39;17.50;99.90
16958;DHT22;8595;52.542;11.974;2023-07-31T07:41:06;17.50;99.90
16958;DHT22;8595;52.542;11.974;2023-07-31T07:43:35;17.50;99.90
16958;DHT22;8595;52.542;11.974;2023-07-31T07:46:01;17.30;99.90
16958;DHT22;8595;52.542;11.974;2023-07-31T07:48:28;17.20;99.90
16958;DHT22;8595;52.542;11.974;2023-07-31T07:50:55;17.00;99.90
16958;DHT22;8595;52.542;11.974;2023-07-31T07:53:22;16.70;99.90
16958;DHT22;8595;52.542;11.974;2023-07-31T07:55:48;16.60;99.90
16958;DHT22;8595;52.542;11.974;2023-07-31T07:58:15;16.40;99.90
16958;DHT22;8595;52.542;11.974;2023-07-31T08:00:48;16.30;99.90
16958;DHT22;8595;52.542;11.974;2023-07-31T08:03:15;16.20;99.90
16958;DHT22;8595;52.542;11.974;2023-07-31T08:05:42;16.20;99.90
16958;DHT22;8595;52.542;11.974;2023-07-31T08:08:13;16.20;99.90
16958;DHT22;8595;52.542;11.974;2023-07-31T08:10:40;16.30;99.90
16958;DHT22;8595;52.542;11.974;2023-07-31T08:13:07;16.30;99.90
16958;DHT22;8595;52.542;11.974;2023-07-31T08:15:34;16.30;99.90
16958;DHT22;8595;52.542;11.974;2023-07-31T08:18:02;16.50;99.90
16958;DHT22;8595;52.542;11.974;2023-07-31T08:20:29;16.60;99.90
16958;DHT22;8595;52.542;11.974;2023-07-31T08:22:55;16.60;99.90
16958;DHT22;8595;52.542;11.974;2023-07-31T08:25:23;16.60;99.90
16958;DHT22;8595;52.542;11.974;2023-07-31T08:27:51;16.60;99.90
16958;DHT22;8595;52.542;11.974;2023-07-31T08:30:19;16.70;99.90
16958;DHT22;8595;52.542;11.974;2023-07-31T08:32:46;16.90;99.90
16958;DHT22;8595;52.542;11.974;2023-07-31T08:35:14;17.00;99.90
16958;DHT22;8595;52.542;11.974;2023-07-31T08:37:41;17.10;99.90
16958;DHT22;8595;52.542;11.974;2023-07-31T08:40:08;17.20;99.90
16958;DHT22;8595;52.542;11.974;2023-07-31T08:42:43;17.30;99.90
16958;DHT22;8595;52.542;11.974;2023-07-31T08:45:13;17.20;99.90
16958;DHT22;8595;52.542;11.974;2023-07-31T08:47:41;17.20;99.90
16958;DHT22;8595;52.542;11.974;2023-07-31T08:50:09;17.20;99.90
16958;DHT22;8595;52.542;11.974;2023-07-31T08:52:38;17.20;99.90
16958;DHT22;8595;52.542;11.974;2023-07-31T08:55:07;17.20;99.90
16958;DHT22;8595;52.542;11.974;2023-07-31T08:57:36;17.10;99.90
16958;DHT22;8595;52.542;11.974;2023-07-31T09:00:06;17.10;99.90
16958;DHT22;8595;52.542;11.974;2023-07-31T09:02:38;17.00;99.90
16958;DHT22;8595;52.542;11.974;2023-07-31T09:05:08;17.10;99.90
16958;DHT22;8595;52.542;11.974;2023-07-31T09:07:35;17.10;99.90
16958;DHT22;8595;52.542;11.974;2023-07-31T09:10:04;17.20;99.90
16958;DHT22;8595;52.542;11.974;2023-07-31T09:12:31;17.20;99.90
16958;DHT22;8595;52.542;11.974;2023-07-31T09:14:58;17.20;99.90
16958;DHT22;8595;52.542;11.974;2023-07-31T09:17:29;17.20;99.90
16958;DHT22;8595;52.542;11.974;2023-07-31T09:19:56;17.30;99.90
16958;DHT22;8595;52.542;11.974;2023-07-31T09:22:31;17.40;99.90
16958;DHT22;8595;52.542;11.974;2023-07-31T09:25:14;17.60;99.90
16958;DHT22;8595;52.542;11.974;2023-07-31T09:27:47;17.70;99.90
16958;DHT22;8595;52.542;11.974;2023-07-31T09:30:14;17.80;99.90
16958;DHT22;8595;52.542;11.974;2023-07-31T09:32:42;18.10;99.90
16958;DHT22;8595;52.542;11.974;2023-07-31T09:35:27;18.50;99.90
16958;DHT22;8595;52.542;11.974;2023-07-31T09:37:57;18.80;99.90
16958;DHT22;8595;52.542;11.974;2023-07-31T09:40:30;19.10;99.90
16958;DHT22;8595;52.542;11.974;2023-07-31T09:42:58;19.50;99.90
16958;DHT22;8595;52.542;11.974;2023-07-31T09:45:25;19.50;99.90
16958;DHT22;8595;52.542;11.974;2023-07-31T09:47:53;19.40;99.90
16958;DHT22;8595;52.542;11.974;2023-07-31T09:50:21;19.40;99.90
16958;DHT22;8595;52.542;11.974;2023-07-31T09:52:48;19.50;99.90
16958;DHT22;8595;52.542;11.974;2023-07-31T09:55:15;20.10;99.90
16958;DHT22;8595;52.542;11.974;2023-07-31T09:57:45;20.10;99.90
16958;DHT22;8595;52.542;11.974;2023-07-31T10:00:14;20.10;99.90
16958;DHT22;8595;52.542;11.974;2023-07-31T10:02:45;20.10;99.90
16958;DHT22;8595;52.542;11.974;2023-07-31T10:05:13;20.50;99.90
16958;DHT22;8595;52.542;11.974;2023-07-31T10:07:43;20.70;99.90
16958;DHT22;8595;52.542;11.974;2023-07-31T10:10:12;21.00;99.90
16958;DHT22;8595;52.542;11.974;2023-07-31T10:12:40;20.80;99.90
16958;DHT22;8595;52.542;11.974;2023-07-31T10:15:10;20.80;99.90
16958;DHT22;8595;52.542;11.974;2023-07-31T10:17:38;20.70;99.90
16958;DHT22;8595;52.542;11.974;2023-07-31T10:20:06;20.50;99.90
16958;DHT22;8595;52.542;11.974;2023-07-31T10:22:34;20.30;99.90
16958;DHT22;8595;52.542;11.974;2023-07-31T10:25:01;20.10;99.90
16958;DHT22;8595;52.542;11.974;2023-07-31T10:27:29;20.00;99.90
16958;DHT22;8595;52.542;11.974;2023-07-31T10:29:57;20.20;99.90
16958;DHT22;8595;52.542;11.974;2023-07-31T10:32:28;20.20;99.90
16958;DHT22;8595;52.542;11.974;2023-07-31T10:34:58;20.50;99.90
16958;DHT22;8595;52.542;11.974;2023-07-31T10:37:28;20.40;99.90
16958;DHT22;8595;52.542;11.974;2023-07-31T10:40:00;20.30;99.90
16958;DHT22;8595;52.542;11.974;2023-07-31T10:42:33;20.30;99.90
16958;DHT22;8595;52.542;11.974;2023-07-31T10:45:03;20.30;99.90
16958;DHT22;8595;52.542;11.974;2023-07-31T10:47:36;20.40;99.90
16958;DHT22;8595;52.542;11.974;2023-07-31T10:50:17;20.30;99.90
16958;DHT22;8595;52.542;11.974;2023-07-31T10:52:51;20.30;99.90
16958;DHT22;8595;52.542;11.974;2023-07-31T10:55:29;20.10;99.90
16958;DHT22;8595;52.542;11.974;2023-07-31T10:58:05;20.00;99.90
16958;DHT22;8595;52.542;11.974;2023-07-31T11:00:34;19.90;99.90
16958;DHT22;8595;52.542;11.974;2023-07-31T11:03:07;19.80;99.90
16958;DHT22;8595;52.542;11.974;2023-07-31T11:05:44;19.60;99.90
16958;DHT22;8595;52.542;11.974;2023-07-31T11:08:16;19.60;99.90
16958;DHT22;8595;52.542;11.974;2023-07-31T11:10:45;19.70;99.90
16958;DHT22;8595;52.542;11.974;2023-07-31T11:13:12;19.80;99.90
16958;DHT22;8595;52.542;11.974;2023-07-31T11:15:39;19.80;99.90
16958;DHT22;8595;52.542;11.974;2023-07-31T11:18:07;19.80;99.90
16958;DHT22;8595;52.542;11.974;2023-07-31T11:20:37;19.80;99.90
16958;DHT22;8595;52.542;11.974;2023-07-31T11:23:07;19.80;99.90
16958;DHT22;8595;52.542;11.974;2023-07-31T11:25:35;19.90;99.90
16958;DHT22;8595;52.542;11.974;2023-07-31T11:28:06;19.80;99.90
16958;DHT22;8595;52.542;11.974;2023-07-31T11:30:33;19.70;99.90
16958;DHT22;8595;52.542;11.974;2023-07-31T11:33:01;19.60;99.90
16958;DHT22;8595;52.542;11.974;2023-07-31T11:35:31;19.70;99.90
16958;DHT22;8595;52.542;11.974;2023-07-31T11:37:59;19.60;99.90
16958;DHT22;8595;52.542;11.974;2023-07-31T11:40:27;19.60;99.90
16958;DHT22;8595;52.542;11.974;2023-07-31T11:42:56;19.60;99.90
16958;DHT22;8595;52.542;11.974;2023-07-31T11:45:25;19.60;99.90
16958;DHT22;8595;52.542;11.974;2023-07-31T11:47:54;19.50;99.90
16958;DHT22;8595;52.542;11.974;2023-07-31T11:50:23;19.50;99.90
16958;DHT22;8595;52.542;11.974;2023-07-31T11:52:54;19.60;99.90
16958;DHT22;8595;52.542;11.974;2023-07-31T11:55:23;19.60;99.90
16958;DHT22;8595;52.542;11.974;2023-07-31T11:57:51;19.70;99.90
16958;DHT22;8595;52.542;11.974;2023-07-31T12:00:19;19.80;99.90
16958;DHT22;8595;52.542;11.974;2023-07-31T12:02:46;20.10;99.90
16958;DHT22;8595;52.542;11.974;2023-07-31T12:05:13;20.50;99.90
16958;DHT22;8595;52.542;11.974;2023-07-31T12:07:47;20.40;99.90
16958;DHT22;8595;52.542;11.974;2023-07-31T12:10:27;20.60;99.90
16958;DHT22;8595;52.542;11.974;2023-07-31T12:12:59;20.90;99.90
16958;DHT22;8595;52.542;11.974;2023-07-31T12:15:32;21.10;99.90
16958;DHT22;8595;52.542;11.974;2023-07-31T12:17:59;21.20;99.90
16958;DHT22;8595;52.542;11.974;2023-07-31T12:20:26;21.20;99.90
16958;DHT22;8595;52.542;11.974;2023-07-31T12:22:56;21.20;99.90
16958;DHT22;8595;52.542;11.974;2023-07-31T12:25:28;21.20;99.90
16958;DHT22;8595;52.542;11.974;2023-07-31T12:27:56;21.00;99.90
16958;DHT22;8595;52.542;11.974;2023-07-31T12:30:29;20.90;99.90
16958;DHT22;8595;52.542;11.974;2023-07-31T12:32:56;20.80;99.90
16958;DHT22;8595;52.542;11.974;2023-07-31T12:35:23;20.70;99.90
16958;DHT22;8595;52.542;11.974;2023-07-31T12:37:49;20.70;99.90
16958;DHT22;8595;52.542;11.974;2023-07-31T12:40:16;20.70;99.90
16958;DHT22;8595;52.542;11.974;2023-07-31T12:42:44;20.70;99.90
16958;DHT22;8595;52.542;11.974;2023-07-31T12:45:11;20.60;99.90
16958;DHT22;8595;52.542;11.974;2023-07-31T12:47:38;20.50;99.90
16958;DHT22;8595;52.542;11.974;2023-07-31T12:50:06;20.80;99.90
16958;DHT22;8595;52.542;11.974;2023-07-31T12:52:33;21.00;99.90
16958;DHT22;8595;52.542;11.974;2023-07-31T12:55:00;21.20;99.90
16958;DHT22;8595;52.542;11.974;2023-07-31T12:57:27;21.40;99.90
16958;DHT22;8595;52.542;11.974;2023-07-31T12:59:55;21.40;99.90
16958;DHT22;8595;52.542;11.974;2023-07-31T13:02:22;21.50;99.90
16958;DHT22;8595;52.542;11.974;2023-07-31T13:04:49;21.40;99.90
16958;DHT22;8595;52.542;11.974;2023-07-31T13:07:16;21.20;99.90
16958;DHT22;8595;52.542;11.974;2023-07-31T13:09:43;21.30;99.90
16958;DHT22;8595;52.542;11.974;2023-07-31T13:12:10;21.30;99.90
16958;DHT22;8595;52.542;11.974;2023-07-31T13:14:37;21.10;99.90
16958;DHT22;8595;52.542;11.974;2023-07-31T13:17:05;21.20;99.90
16958;DHT22;8595;52.542;11.974;2023-07-31T13:19:32;20.90;99.90
16958;DHT22;8595;52.542;11.974;2023-07-31T13:21:59;20.90;99.90
16958;DHT22;8595;52.542;11.974;2023-07-31T13:24:26;20.90;99.90
16958;DHT22;8595;52.542;11.974;2023-07-31T13:26:52;21.00;99.90
16958;DHT22;8595;52.542;11.974;2023-07-31T13:29:19;20.90;99.90
16958;DHT22;8595;52.542;11.974;2023-07-31T13:31:47;20.90;99.90
16958;DHT22;8595;52.542;11.974;2023-07-31T13:34:15;20.80;99.90
16958;DHT22;8595;52.542;11.974;2023-07-31T13:36:42;20.90;99.90
16958;DHT22;8595;52.542;11.974;2023-07-31T13:39:09;20.80;99.90
16958;DHT22;8595;52.542;11.974;2023-07-31T13:41:36;20.90;99.90
16958;DHT22;8595;52.542;11.974;2023-07-31T13:44:03;20.90;99.90
16958;DHT22;8595;52.542;11.974;2023-07-31T13:46:30;20.90;99.90
16958;DHT22;8595;52.542;11.974;2023-07-31T13:48:57;20.90;99.90
16958;DHT22;8595;52.542;11.974;2023-07-31T13:51:27;20.90;99.90
16958;DHT22;8595;52.542;11.974;2023-07-31T13:53:54;20.90;99.90
16958;DHT22;8595;52.542;11.974;2023-07-31T13:56:21;20.90;99.90
16958;DHT22;8595;52.542;11.974;2023-07-31T13:58:48;20.90;99.90
16958;DHT22;8595;52.542;11.974;2023-07-31T14:01:14;21.10;99.90
16958;DHT22;8595;52.542;11.974;2023-07-31T14:03:41;21.10;99.90
16958;DHT22;8595;52.542;11.974;2023-07-31T14:06:08;20.90;99.90
16958;DHT22;8595;52.542;11.974;2023-07-31T14:08:36;20.80;99.90
16958;DHT22;8595;52.542;11.974;2023-07-31T14:11:03;20.80;99.90
16958;DHT22;8595;52.542;11.974;2023-07-31T14:13:30;20.60;99.90
16958;DHT22;8595;52.542;11.974;2023-07-31T14:15:57;20.50;99.90
16958;DHT22;8595;52.542;11.974;2023-07-31T14:18:23;20.40;99.90
16958;DHT22;8595;52.542;11.974;2023-07-31T14:20:51;20.40;99.90
16958;DHT22;8595;52.542;11.974;2023-07-31T14:23:18;20.50;99.90
16958;DHT22;8595;52.542;11.974;2023-07-31T14:25:47;20.50;99.90
16958;DHT22;8595;52.542;11.974;2023-07-31T14:28:14;20.50;99.90
16958;DHT22;8595;52.542;11.974;2023-07-31T14:30:40;20.60;99.90
16958;DHT22;8595;52.542;11.974;2023-07-31T14:33:07;20.60;99.90
16958;DHT22;8595;52.542;11.974;2023-07-31T14:35:34;20.60;99.90
16958;DHT22;8595;52.542;11.974;2023-07-31T14:38:01;20.70;99.90
16958;DHT22;8595;52.542;11.974;2023-07-31T14:40:28;20.70;99.90
16958;DHT22;8595;52.542;11.974;2023-07-31T14:42:56;20.70;99.90
16958;DHT22;8595;52.542;11.974;2023-07-31T14:45:23;20.80;99.90
16958;DHT22;8595;52.542;11.974;2023-07-31T14:47:50;20.90;99.90
16958;DHT22;8595;52.542;11.974;2023-07-31T14:50:19;20.90;99.90
16958;DHT22;8595;52.542;11.974;2023-07-31T14:52:46;20.90;99.90
16958;DHT22;8595;52.542;11.974;2023-07-31T14:55:13;20.90;99.90
16958;DHT22;8595;52.542;11.974;2023-07-31T14:57:40;20.90;99.90
16958;DHT22;8595;52.542;11.974;2023-07-31T15:00:10;20.80;99.90
16958;DHT22;8595;52.542;11.974;2023-07-31T15:02:38;20.30;99.90
16958;DHT22;8595;52.542;11.974;2023-07-31T15:05:05;19.80;99.90
16958;DHT22;8595;52.542;11.974;2023-07-31T15:07:32;19.60;99.90
16958;DHT22;8595;52.542;11.974;2023-07-31T15:09:59;19.40;99.90
16958;DHT22;8595;52.542;11.974;2023-07-31T15:12:26;19.30;99.90
16958;DHT22;8595;52.542;11.974;2023-07-31T15:14:53;19.30;99.90
16958;DHT22;8595;52.542;11.974;2023-07-31T15:17:21;19.30;99.90
16958;DHT22;8595;52.542;11.974;2023-07-31T15:19:48;19.30;99.90
16958;DHT22;8595;52.542;11.974;2023-07-31T15:22:15;19.40;99.90
16958;DHT22;8595;52.542;11.974;2023-07-31T15:24:42;19.60;99.90
16958;DHT22;8595;52.542;11.974;2023-07-31T15:27:09;19.70;99.90
16958;DHT22;8595;52.542;11.974;2023-07-31T15:29:35;19.70;99.90
16958;DHT22;8595;52.542;11.974;2023-07-31T15:32:04;19.70;99.90
16958;DHT22;8595;52.542;11.974;2023-07-31T15:34:32;19.80;99.90